Terminal Aerodrome Forecast
Issued by NWS

Home | Current Version | Previous Version | Text Only | Print | Product List | Glossary On
Versions: 1 2 3 4 5 6 7 8 9 10 11 12
000
FTUS42 TJSJ 281700
TAFNCM
TAF
TNCM 281740Z 2818/2918 12013KT P6SM FEW024
     FM290300 09010KT P6SM SCT018
     FM291400 12014KT P6SM FEW024=

USA.gov is the U.S. government's official web portal to all federal, state and local government web resources and services.